Time;durP1;ratioP1;P1;durP2;ratioP2;P2;SDS_P1;SDS_P2;PMS_P1;PMS_P2;Temp;Humidity;BMP_temperature;BMP_pressure;BME280_temperature;BME280_humidity;BME280_pressure;Samples;Min_cycle;Max_cycle;Signal;HPM_P1;HPM_P2
2023/05/28 00:00:27;;;;;;;0.98;0.95;;;;;;;;;;1031098;28;20118;-75
2023/05/28 00:00:57;;;;;;;2.10;0.63;;;;;;;;;;1031410;28;20026;-75
2023/05/28 00:01:28;;;;;;;0.45;0.40;;;;;;;;;;1027328;28;20027;-75
2023/05/28 00:01:58;;;;;;;1.20;1.17;;;;;;;;;;1027589;28;20034;-74
2023/05/28 00:02:28;;;;;;;0.50;0.50;;;;;;;;;;1027594;28;20062;-75
2023/05/28 00:02:59;;;;;;;3.65;1.65;;;;;;;;;;1027752;28;20023;-75
2023/05/28 00:03:31;;;;;;;1.55;0.40;;;;;;;;;;1027544;28;20057;-74
2023/05/28 00:04:01;;;;;;;0.63;0.63;;;;;;;;;;1031327;28;20026;-75
2023/05/28 00:04:32;;;;;;;0.45;0.45;;;;;;;;;;1031109;28;20486;-75
2023/05/28 00:05:05;;;;;;;0.63;0.38;;;;;;;;;;1031297;28;20062;-75
2023/05/28 00:05:35;;;;;;;1.10;0.75;;;;;;;;;;1030821;28;20022;-75
2023/05/28 00:06:06;;;;;;;0.68;0.57;;;;;;;;;;1027799;28;20033;-75
2023/05/28 00:06:37;;;;;;;0.25;0.25;;;;;;;;;;1026324;28;20027;-75
2023/05/28 00:07:10;;;;;;;2.38;1.05;;;;;;;;;;1031365;28;20407;-75
2023/05/28 00:07:41;;;;;;;0.70;0.70;;;;;;;;;;1031069;28;20053;-75
2023/05/28 00:08:13;;;;;;;0.00;0.00;;;;;;;;;;1031411;28;20102;-75
2023/05/28 00:08:44;;;;;;;2.78;1.85;;;;;;;;;;1030572;28;20026;-75
2023/05/28 00:09:14;;;;;;;0.20;0.20;;;;;;;;;;1031200;28;20022;-75
2023/05/28 00:09:46;;;;;;;0.10;0.10;;;;;;;;;;1027007;28;20081;-75
2023/05/28 00:10:17;;;;;;;1.85;1.75;;;;;;;;;;1023521;28;20022;-75
2023/05/28 00:10:47;;;;;;;0.20;0.20;;;;;;;;;;1023590;28;20043;-75
2023/05/28 00:11:17;;;;;;;0.90;0.90;;;;;;;;;;1023637;28;20105;-75
2023/05/28 00:11:48;;;;;;;2.13;1.48;;;;;;;;;;1026925;28;20041;-75
2023/05/28 00:12:18;;;;;;;0.60;0.60;;;;;;;;;;1027838;28;20125;-74
2023/05/28 00:12:49;;;;;;;0.17;0.17;;;;;;;;;;1027460;28;20042;-75
2023/05/28 00:13:19;;;;;;;0.00;0.00;;;;;;;;;;1031285;28;20033;-75
2023/05/28 00:13:50;;;;;;;0.15;0.15;;;;;;;;;;1031162;28;20027;-75
2023/05/28 00:14:21;;;;;;;2.92;1.48;;;;;;;;;;1027149;28;20066;-75
2023/05/28 00:14:51;;;;;;;5.57;1.90;;;;;;;;;;1027094;28;20037;-75
2023/05/28 00:15:22;;;;;;;0.38;0.38;;;;;;;;;;1027423;28;20058;-75
2023/05/28 00:15:53;;;;;;;0.70;0.45;;;;;;;;;;1027294;28;20058;-75
2023/05/28 00:16:23;;;;;;;0.50;0.25;;;;;;;;;;1027714;28;20090;-75
2023/05/28 00:16:55;;;;;;;0.40;0.40;;;;;;;;;;1027315;28;20027;-75
2023/05/28 00:17:25;;;;;;;9.40;0.95;;;;;;;;;;1027395;28;20027;-75
2023/05/28 00:17:56;;;;;;;1.27;0.57;;;;;;;;;;1027530;28;20390;-75
2023/05/28 00:18:28;;;;;;;0.63;0.60;;;;;;;;;;1027625;28;20386;-75
2023/05/28 00:18:58;;;;;;;1.50;1.40;;;;;;;;;;1026742;28;20117;-75
2023/05/28 00:19:29;;;;;;;6.65;1.17;;;;;;;;;;1027224;28;20030;-75
2023/05/28 00:19:59;;;;;;;0.22;0.22;;;;;;;;;;1027816;28;20106;-75
2023/05/28 00:20:30;;;;;;;0.10;0.10;;;;;;;;;;1029985;28;20023;-75
2023/05/28 00:21:00;;;;;;;1.55;0.80;;;;;;;;;;1029150;28;20474;-75
2023/05/28 00:21:34;;;;;;;7.03;0.65;;;;;;;;;;1028948;28;20030;-75
2023/05/28 00:22:05;;;;;;;0.22;0.17;;;;;;;;;;1028358;28;20091;-75
2023/05/28 00:22:35;;;;;;;0.77;0.77;;;;;;;;;;1028994;28;20532;-75
2023/05/28 00:23:06;;;;;;;0.10;0.10;;;;;;;;;;1025164;28;20028;-75
2023/05/28 00:23:36;;;;;;;0.47;0.32;;;;;;;;;;1024955;28;20494;-75
2023/05/28 00:24:07;;;;;;;1.20;1.08;;;;;;;;;;1021172;29;20034;-75
2023/05/28 00:24:38;;;;;;;0.22;0.20;;;;;;;;;;1023508;28;20073;-75
2023/05/28 00:25:10;;;;;;;0.10;0.10;;;;;;;;;;1028158;28;20430;-75
2023/05/28 00:25:41;;;;;;;0.73;0.32;;;;;;;;;;1026897;28;20027;-75
2023/05/28 00:26:11;;;;;;;0.60;0.60;;;;;;;;;;1028555;28;20125;-75
2023/05/28 00:26:42;;;;;;;0.35;0.35;;;;;;;;;;1027606;28;20057;-75
2023/05/28 00:27:12;;;;;;;0.13;0.13;;;;;;;;;;1024120;28;20058;-75
2023/05/28 00:27:43;;;;;;;1.08;0.95;;;;;;;;;;1023958;29;20027;-75
2023/05/28 00:28:13;;;;;;;0.28;0.28;;;;;;;;;;1024282;28;20027;-75
2023/05/28 00:28:43;;;;;;;0.10;0.10;;;;;;;;;;1028006;28;20023;-75
2023/05/28 00:29:14;;;;;;;2.15;0.30;;;;;;;;;;1031969;28;20484;-75
2023/05/28 00:29:45;;;;;;;0.40;0.40;;;;;;;;;;1031753;28;20476;-75
2023/05/28 00:30:15;;;;;;;0.50;0.50;;;;;;;;;;1032118;28;20034;-75
2023/05/28 00:30:46;;;;;;;1.23;0.93;;;;;;;;;;1031985;28;20100;-75
2023/05/28 00:31:16;;;;;;;0.90;0.85;;;;;;;;;;1032103;28;20549;-75
2023/05/28 00:31:47;;;;;;;1.52;0.73;;;;;;;;;;1031602;28;20030;-74
2023/05/28 00:32:17;;;;;;;1.27;0.85;;;;;;;;;;1028518;28;20035;-75
2023/05/28 00:32:48;;;;;;;0.20;0.20;;;;;;;;;;1028198;28;20029;-75
2023/05/28 00:33:18;;;;;;;0.30;0.20;;;;;;;;;;1032052;28;20661;-75
2023/05/28 00:33:49;;;;;;;0.98;0.52;;;;;;;;;;1031968;28;20026;-75
2023/05/28 00:34:19;;;;;;;1.70;1.60;;;;;;;;;;1027889;28;20038;-75
2023/05/28 00:34:50;;;;;;;0.00;0.00;;;;;;;;;;1027621;28;20031;-75
2023/05/28 00:35:20;;;;;;;0.10;0.10;;;;;;;;;;1028103;28;20027;-75
2023/05/28 00:35:55;;;;;;;0.10;0.10;;;;;;;;;;1026096;28;20028;-75
2023/05/28 00:36:26;;;;;;;3.47;1.08;;;;;;;;;;1030078;28;20113;-75
2023/05/28 00:36:56;;;;;;;0.00;0.00;;;;;;;;;;1030147;28;20382;-74
2023/05/28 00:37:27;;;;;;;0.45;0.30;;;;;;;;;;1030185;28;20028;-75
2023/05/28 00:37:57;;;;;;;1.58;0.90;;;;;;;;;;1028390;28;20100;-75
2023/05/28 00:38:28;;;;;;;11.48;1.80;;;;;;;;;;1028145;28;20058;-75
2023/05/28 00:38:59;;;;;;;0.85;0.85;;;;;;;;;;1032133;28;20042;-75
2023/05/28 00:39:29;;;;;;;1.60;1.15;;;;;;;;;;1031589;28;20514;-75
2023/05/28 00:40:00;;;;;;;1.60;0.88;;;;;;;;;;1032174;28;20078;-75
2023/05/28 00:40:30;;;;;;;0.10;0.10;;;;;;;;;;1031858;28;20022;-75
2023/05/28 00:41:01;;;;;;;7.43;1.27;;;;;;;;;;1031961;28;20018;-75
2023/05/28 00:41:31;;;;;;;1.00;0.90;;;;;;;;;;1027950;28;20035;-75
2023/05/28 00:42:02;;;;;;;1.38;1.25;;;;;;;;;;1028294;28;20026;-75
2023/05/28 00:42:33;;;;;;;2.63;1.33;;;;;;;;;;1028240;28;20026;-75
2023/05/28 00:43:03;;;;;;;0.77;0.75;;;;;;;;;;1028420;28;20442;-75
2023/05/28 00:43:33;;;;;;;0.90;0.17;;;;;;;;;;1028194;28;20422;-75
2023/05/28 00:44:05;;;;;;;1.00;0.52;;;;;;;;;;1028421;28;20027;-75
2023/05/28 00:44:37;;;;;;;5.78;0.73;;;;;;;;;;1031660;28;20386;-75
2023/05/28 00:45:09;;;;;;;0.45;0.25;;;;;;;;;;1032017;28;20101;-75
2023/05/28 00:45:39;;;;;;;0.38;0.25;;;;;;;;;;1031814;28;20032;-75
2023/05/28 00:46:10;;;;;;;0.40;0.38;;;;;;;;;;1032038;28;20045;-75
2023/05/28 00:46:42;;;;;;;0.50;0.50;;;;;;;;;;1031649;28;20426;-75
2023/05/28 00:47:12;;;;;;;0.52;0.32;;;;;;;;;;1032120;28;20022;-75
2023/05/28 00:47:43;;;;;;;0.22;0.22;;;;;;;;;;1027715;28;20387;-75
2023/05/28 00:48:14;;;;;;;0.10;0.10;;;;;;;;;;1028125;28;20037;-75
2023/05/28 00:48:45;;;;;;;0.50;0.50;;;;;;;;;;1027887;28;20137;-75
2023/05/28 00:49:16;;;;;;;4.07;1.23;;;;;;;;;;1027960;28;20026;-75
2023/05/28 00:49:48;;;;;;;1.02;0.55;;;;;;;;;;1028162;28;20023;-75
2023/05/28 00:50:20;;;;;;;3.53;0.65;;;;;;;;;;1028399;28;20117;-75
2023/05/28 00:50:50;;;;;;;2.47;1.10;;;;;;;;;;1028201;28;20382;-75
2023/05/28 00:51:21;;;;;;;0.08;0.08;;;;;;;;;;1032038;28;20026;-75
2023/05/28 00:51:51;;;;;;;2.47;2.03;;;;;;;;;;1029769;28;20526;-75
2023/05/28 00:52:22;;;;;;;1.75;0.70;;;;;;;;;;1026187;28;20029;-75
2023/05/28 00:52:53;;;;;;;0.93;0.77;;;;;;;;;;1025852;28;20104;-75
2023/05/28 00:53:25;;;;;;;0.47;0.38;;;;;;;;;;1025700;28;20031;-75
2023/05/28 00:53:55;;;;;;;0.00;0.00;;;;;;;;;;1027922;28;20198;-75
2023/05/28 00:54:26;;;;;;;0.25;0.25;;;;;;;;;;1027821;28;20026;-75
2023/05/28 00:54:56;;;;;;;2.05;1.40;;;;;;;;;;1030029;28;20074;-75
2023/05/28 00:55:27;;;;;;;0.40;0.40;;;;;;;;;;1030087;28;20113;-75
2023/05/28 00:55:57;;;;;;;5.55;1.25;;;;;;;;;;1029615;28;20034;-75
2023/05/28 00:56:28;;;;;;;2.17;0.20;;;;;;;;;;1029828;28;20029;-75
2023/05/28 00:56:58;;;;;;;4.57;0.80;;;;;;;;;;1027943;28;20407;-75
2023/05/28 00:57:30;;;;;;;17.20;0.65;;;;;;;;;;1027762;28;20022;-75
2023/05/28 00:58:05;;;;;;;0.88;0.55;;;;;;;;;;1032036;28;20029;-75
2023/05/28 00:58:39;;;;;;;1.77;0.88;;;;;;;;;;1031160;28;20026;-75
2023/05/28 00:59:10;;;;;;;1.67;1.02;;;;;;;;;;1032032;28;20069;-75
2023/05/28 00:59:41;;;;;;;0.30;0.30;;;;;;;;;;1031578;28;20032;-75
2023/05/28 01:00:11;;;;;;;0.28;0.28;;;;;;;;;;1031864;28;20041;-75
2023/05/28 01:00:45;;;;;;;1.60;1.50;;;;;;;;;;1031778;28;20398;-75
2023/05/28 01:01:16;;;;;;;0.63;0.55;;;;;;;;;;1031509;28;20085;-75
2023/05/28 01:01:47;;;;;;;3.20;2.28;;;;;;;;;;1031512;28;20079;-75
2023/05/28 01:02:18;;;;;;;0.65;0.50;;;;;;;;;;1031168;28;20079;-75
2023/05/28 01:02:49;;;;;;;0.95;0.55;;;;;;;;;;1031807;28;20521;-75
2023/05/28 01:03:20;;;;;;;10.27;2.03;;;;;;;;;;1031818;28;20191;-75
2023/05/28 01:03:51;;;;;;;4.00;1.83;;;;;;;;;;1028203;28;20022;-75
2023/05/28 01:04:22;;;;;;;0.60;0.60;;;;;;;;;;1028150;28;20454;-75
2023/05/28 01:04:52;;;;;;;1.05;1.02;;;;;;;;;;1028101;28;20023;-75
2023/05/28 01:05:23;;;;;;;1.00;0.75;;;;;;;;;;1027688;28;20027;-75
2023/05/28 01:05:53;;;;;;;2.58;0.40;;;;;;;;;;1027869;28;20113;-75
2023/05/28 01:06:24;;;;;;;3.45;2.13;;;;;;;;;;1028030;28;20031;-75
2023/05/28 01:06:56;;;;;;;0.82;0.80;;;;;;;;;;1027679;28;20033;-75
2023/05/28 01:07:27;;;;;;;7.45;2.67;;;;;;;;;;1027170;28;20022;-75
2023/05/28 01:08:01;;;;;;;0.52;0.38;;;;;;;;;;1031823;28;20506;-75
2023/05/28 01:08:31;;;;;;;0.70;0.40;;;;;;;;;;1031803;28;20402;-75
2023/05/28 01:09:02;;;;;;;0.28;0.22;;;;;;;;;;1032060;28;20046;-75
2023/05/28 01:09:33;;;;;;;0.10;0.10;;;;;;;;;;1031219;28;20607;-75
2023/05/28 01:10:04;;;;;;;0.70;0.70;;;;;;;;;;1028247;28;20023;-75
2023/05/28 01:10:36;;;;;;;1.90;0.77;;;;;;;;;;1027499;28;20117;-75
2023/05/28 01:11:09;;;;;;;0.38;0.38;;;;;;;;;;1027931;28;20027;-75
2023/05/28 01:11:41;;;;;;;1.05;0.70;;;;;;;;;;1027356;28;20022;-75
2023/05/28 01:12:11;;;;;;;0.95;0.85;;;;;;;;;;1024666;28;20066;-75
2023/05/28 01:12:42;;;;;;;1.55;1.17;;;;;;;;;;1027922;28;20074;-75
2023/05/28 01:13:13;;;;;;;2.13;0.68;;;;;;;;;;1028013;28;20030;-75
2023/05/28 01:13:44;;;;;;;0.57;0.50;;;;;;;;;;1027789;28;20023;-75
2023/05/28 01:14:15;;;;;;;0.38;0.38;;;;;;;;;;1028154;28;20027;-75
2023/05/28 01:14:46;;;;;;;0.55;0.52;;;;;;;;;;1028083;28;20490;-75
2023/05/28 01:15:16;;;;;;;0.65;0.60;;;;;;;;;;1028217;28;20038;-75
2023/05/28 01:15:47;;;;;;;0.38;0.22;;;;;;;;;;1028078;28;20410;-75
2023/05/28 01:16:17;;;;;;;0.98;0.32;;;;;;;;;;1031896;28;20030;-75
2023/05/28 01:16:48;;;;;;;3.67;2.00;;;;;;;;;;1029607;28;20030;-75
2023/05/28 01:17:19;;;;;;;1.05;0.80;;;;;;;;;;1028866;28;20045;-75
2023/05/28 01:17:49;;;;;;;4.22;0.22;;;;;;;;;;1029530;28;20030;-75
2023/05/28 01:18:20;;;;;;;6.65;0.90;;;;;;;;;;1029638;28;20501;-75
2023/05/28 01:18:54;;;;;;;0.88;0.85;;;;;;;;;;1027645;28;20023;-75
2023/05/28 01:19:27;;;;;;;1.77;1.10;;;;;;;;;;1026934;28;20026;-75
2023/05/28 01:19:57;;;;;;;0.75;0.75;;;;;;;;;;1028025;28;20049;-76
2023/05/28 01:20:28;;;;;;;4.03;0.30;;;;;;;;;;1027774;28;20069;-75
2023/05/28 01:21:01;;;;;;;0.63;0.63;;;;;;;;;;1028233;28;20022;-76
2023/05/28 01:21:32;;;;;;;1.70;0.68;;;;;;;;;;1027850;28;20129;-76
2023/05/28 01:22:04;;;;;;;0.28;0.20;;;;;;;;;;1028117;28;20434;-76
2023/05/28 01:22:37;;;;;;;0.52;0.52;;;;;;;;;;1027001;28;20023;-75
2023/05/28 01:23:11;;;;;;;0.30;0.30;;;;;;;;;;1028308;28;20394;-75
2023/05/28 01:23:45;;;;;;;0.65;0.50;;;;;;;;;;1027051;28;20029;-75
2023/05/28 01:24:15;;;;;;;0.20;0.17;;;;;;;;;;1028253;28;20025;-75
2023/05/28 01:24:47;;;;;;;0.40;0.40;;;;;;;;;;1028098;28;20034;-75
2023/05/28 01:25:18;;;;;;;0.95;0.65;;;;;;;;;;1031491;28;20030;-75
2023/05/28 01:25:52;;;;;;;0.90;0.90;;;;;;;;;;1031211;28;20022;-76
2023/05/28 01:26:22;;;;;;;1.08;0.98;;;;;;;;;;1032000;28;20068;-75
2023/05/28 01:26:53;;;;;;;0.90;0.52;;;;;;;;;;1030975;28;20453;-75
2023/05/28 01:27:23;;;;;;;0.75;0.75;;;;;;;;;;1028131;28;20044;-75
2023/05/28 01:27:54;;;;;;;0.22;0.22;;;;;;;;;;1028169;28;20027;-75
2023/05/28 01:28:24;;;;;;;0.15;0.15;;;;;;;;;;1027664;28;20026;-75
2023/05/28 01:28:56;;;;;;;1.02;0.40;;;;;;;;;;1027832;28;20015;-75
2023/05/28 01:29:26;;;;;;;1.85;1.25;;;;;;;;;;1027483;28;20030;-75
2023/05/28 01:29:57;;;;;;;1.48;1.20;;;;;;;;;;1027928;28;20026;-75
2023/05/28 01:30:27;;;;;;;0.32;0.30;;;;;;;;;;1028153;28;20118;-75
2023/05/28 01:30:58;;;;;;;4.03;1.08;;;;;;;;;;1028292;28;20165;-76
2023/05/28 01:31:28;;;;;;;0.03;0.03;;;;;;;;;;1027839;28;20023;-75
2023/05/28 01:32:00;;;;;;;0.30;0.30;;;;;;;;;;1027079;28;20029;-75
2023/05/28 01:32:30;;;;;;;2.20;2.00;;;;;;;;;;1028059;28;20029;-76
2023/05/28 01:33:01;;;;;;;0.45;0.45;;;;;;;;;;1028179;28;20487;-75
2023/05/28 01:33:33;;;;;;;1.08;1.02;;;;;;;;;;1027931;28;20035;-75
2023/05/28 01:34:04;;;;;;;1.27;0.95;;;;;;;;;;1028234;28;20425;-75
2023/05/28 01:34:34;;;;;;;1.17;0.75;;;;;;;;;;1027843;28;20027;-76
2023/05/28 01:35:05;;;;;;;1.38;1.27;;;;;;;;;;1031671;28;20076;-76
2023/05/28 01:35:36;;;;;;;0.03;0.03;;;;;;;;;;1031398;28;20053;-76
2023/05/28 01:36:07;;;;;;;0.38;0.30;;;;;;;;;;1031902;28;20434;-76
2023/05/28 01:36:51;;;;;;;0.88;0.82;;;;;;;;;;1031112;28;20564;-76
2023/05/28 01:37:24;;;;;;;0.30;0.30;;;;;;;;;;1028733;28;20382;-76
2023/05/28 01:37:58;;;;;;;0.20;0.10;;;;;;;;;;1028100;28;20113;-75
2023/05/28 01:38:28;;;;;;;4.82;0.38;;;;;;;;;;1027528;28;20482;-75
2023/05/28 01:39:01;;;;;;;0.15;0.15;;;;;;;;;;1028006;28;20019;-75
2023/05/28 01:39:36;;;;;;;0.17;0.17;;;;;;;;;;1026716;28;20519;-76
2023/05/28 01:40:07;;;;;;;0.82;0.52;;;;;;;;;;1028364;28;20121;-75
2023/05/28 01:40:43;;;;;;;6.82;2.38;;;;;;;;;;1031497;28;20029;-76
2023/05/28 01:41:14;;;;;;;0.00;0.00;;;;;;;;;;1029929;28;20018;-75
2023/05/28 01:41:45;;;;;;;0.75;0.65;;;;;;;;;;1027710;28;20503;-76
2023/05/28 01:42:16;;;;;;;0.60;0.35;;;;;;;;;;1028237;28;20107;-75
2023/05/28 01:42:47;;;;;;;0.52;0.52;;;;;;;;;;1027935;28;20026;-75
2023/05/28 01:43:17;;;;;;;1.20;0.88;;;;;;;;;;1031792;28;20045;-75
2023/05/28 01:43:49;;;;;;;0.80;0.55;;;;;;;;;;1030567;28;20034;-75
2023/05/28 01:44:20;;;;;;;0.57;0.52;;;;;;;;;;1027606;28;21264;-75
2023/05/28 01:44:51;;;;;;;0.85;0.77;;;;;;;;;;1027610;28;20470;-76
2023/05/28 01:45:21;;;;;;;0.57;0.57;;;;;;;;;;1027659;28;20137;-76
2023/05/28 01:45:52;;;;;;;0.32;0.20;;;;;;;;;;1027616;28;20484;-76
2023/05/28 01:46:23;;;;;;;0.80;0.80;;;;;;;;;;1027631;28;20155;-75
2023/05/28 01:46:54;;;;;;;1.65;1.02;;;;;;;;;;1027704;28;20169;-75
2023/05/28 01:47:25;;;;;;;0.70;0.70;;;;;;;;;;1031535;28;20038;-75
2023/05/28 01:47:56;;;;;;;4.13;0.85;;;;;;;;;;1031726;28;20123;-75
2023/05/28 01:48:27;;;;;;;2.20;0.63;;;;;;;;;;1031788;28;20061;-75
2023/05/28 01:48:57;;;;;;;6.13;1.75;;;;;;;;;;1030927;28;20398;-75
2023/05/28 01:49:28;;;;;;;1.10;1.05;;;;;;;;;;1031250;28;20026;-76
2023/05/28 01:49:58;;;;;;;0.93;0.60;;;;;;;;;;1028241;28;20026;-75
2023/05/28 01:50:30;;;;;;;0.52;0.35;;;;;;;;;;1027980;28;20042;-75
2023/05/28 01:51:00;;;;;;;1.08;0.85;;;;;;;;;;1028142;28;20073;-75
2023/05/28 01:51:32;;;;;;;0.63;0.50;;;;;;;;;;1027874;28;20065;-75
2023/05/28 01:52:03;;;;;;;0.70;0.28;;;;;;;;;;1028023;28;20042;-75
2023/05/28 01:52:33;;;;;;;1.35;1.00;;;;;;;;;;1031564;28;20065;-75
2023/05/28 01:53:04;;;;;;;0.65;0.65;;;;;;;;;;1031755;28;20467;-75
2023/05/28 01:53:34;;;;;;;0.35;0.35;;;;;;;;;;1027511;28;20175;-75
2023/05/28 01:54:05;;;;;;;8.77;0.98;;;;;;;;;;1027880;28;20026;-76
2023/05/28 01:54:35;;;;;;;1.27;0.75;;;;;;;;;;1027366;28;20027;-76
2023/05/28 01:55:08;;;;;;;0.10;0.10;;;;;;;;;;1027927;28;20113;-75
2023/05/28 01:55:39;;;;;;;6.40;1.55;;;;;;;;;;1030422;28;20036;-76
2023/05/28 01:56:10;;;;;;;0.22;0.17;;;;;;;;;;1031542;28;20026;-75
2023/05/28 01:56:40;;;;;;;0.80;0.57;;;;;;;;;;1027672;28;20019;-75
2023/05/28 01:57:11;;;;;;;0.30;0.30;;;;;;;;;;1028127;28;20049;-75
2023/05/28 01:57:42;;;;;;;0.75;0.75;;;;;;;;;;1031421;28;20018;-76
2023/05/28 01:58:12;;;;;;;0.08;0.08;;;;;;;;;;1031819;28;20649;-75
2023/05/28 01:58:43;;;;;;;1.85;0.68;;;;;;;;;;1031683;28;20019;-75
2023/05/28 01:59:13;;;;;;;2.10;0.47;;;;;;;;;;1031653;28;20025;-75
2023/05/28 01:59:44;;;;;;;0.85;0.85;;;;;;;;;;1027845;28;20094;-75
2023/05/28 02:00:15;;;;;;;0.22;0.22;;;;;;;;;;1031811;28;20385;-75
2023/05/28 02:00:59;;;;;;;0.10;0.10;;;;;;;;;;1031632;28;20486;-75
2023/05/28 02:01:32;;;;;;;0.35;0.35;;;;;;;;;;1031317;28;20470;-75
2023/05/28 02:02:03;;;;;;;1.40;0.32;;;;;;;;;;1028577;28;20074;-75
2023/05/28 02:02:34;;;;;;;0.93;0.75;;;;;;;;;;1027874;28;20398;-75
2023/05/28 02:03:06;;;;;;;0.40;0.20;;;;;;;;;;1028163;28;20054;-75
2023/05/28 02:03:36;;;;;;;1.95;1.77;;;;;;;;;;1027589;28;20367;-75
2023/05/28 02:04:07;;;;;;;1.17;0.85;;;;;;;;;;1028126;28;20054;-75
2023/05/28 02:04:37;;;;;;;0.00;0.00;;;;;;;;;;1027799;28;20118;-75
2023/05/28 02:05:08;;;;;;;0.40;0.40;;;;;;;;;;1027937;28;20023;-75
2023/05/28 02:05:39;;;;;;;2.40;0.88;;;;;;;;;;1031556;28;20026;-75
2023/05/28 02:06:10;;;;;;;4.70;0.38;;;;;;;;;;1031832;28;20018;-75
2023/05/28 02:06:44;;;;;;;7.38;1.75;;;;;;;;;;1031328;28;20026;-75
2023/05/28 02:07:15;;;;;;;0.22;0.20;;;;;;;;;;1031844;28;20029;-75
2023/05/28 02:07:46;;;;;;;0.55;0.55;;;;;;;;;;1031448;28;20152;-76
2023/05/28 02:08:17;;;;;;;0.65;0.65;;;;;;;;;;1031132;28;20019;-76
2023/05/28 02:08:47;;;;;;;2.28;0.40;;;;;;;;;;1031302;28;20109;-76
2023/05/28 02:09:18;;;;;;;0.30;0.30;;;;;;;;;;1029968;28;20022;-75
2023/05/28 02:09:48;;;;;;;0.80;0.65;;;;;;;;;;1024287;28;20109;-75
2023/05/28 02:10:18;;;;;;;0.85;0.85;;;;;;;;;;1025354;28;20042;-75
2023/05/28 02:10:49;;;;;;;0.08;0.08;;;;;;;;;;1026029;28;20121;-75
2023/05/28 02:11:21;;;;;;;0.20;0.15;;;;;;;;;;1026837;28;20023;-75
2023/05/28 02:11:52;;;;;;;1.25;0.65;;;;;;;;;;1027649;28;20027;-75
2023/05/28 02:12:22;;;;;;;0.75;0.65;;;;;;;;;;1028068;28;20471;-75
2023/05/28 02:12:53;;;;;;;1.00;0.65;;;;;;;;;;1027993;28;20022;-75
2023/05/28 02:13:23;;;;;;;0.00;0.00;;;;;;;;;;1027796;28;20023;-75
2023/05/28 02:13:54;;;;;;;0.90;0.90;;;;;;;;;;1027951;28;20391;-75
2023/05/28 02:14:24;;;;;;;0.80;0.63;;;;;;;;;;1028069;28;20031;-75
2023/05/28 02:14:56;;;;;;;0.05;0.05;;;;;;;;;;1028002;28;20034;-75
2023/05/28 02:15:26;;;;;;;0.00;0.00;;;;;;;;;;1027624;28;20360;-75
2023/05/28 02:15:57;;;;;;;1.08;0.73;;;;;;;;;;1031630;28;20028;-75
2023/05/28 02:16:28;;;;;;;0.80;0.43;;;;;;;;;;1031529;28;20464;-75
2023/05/28 02:16:59;;;;;;;1.42;0.60;;;;;;;;;;1031698;28;20489;-75
2023/05/28 02:17:30;;;;;;;0.45;0.45;;;;;;;;;;1031193;28;20022;-75
2023/05/28 02:18:01;;;;;;;0.32;0.32;;;;;;;;;;1027994;28;20033;-75
2023/05/28 02:18:32;;;;;;;0.10;0.10;;;;;;;;;;1027711;28;20027;-75
2023/05/28 02:19:03;;;;;;;0.40;0.20;;;;;;;;;;1027927;28;20042;-75
2023/05/28 02:19:34;;;;;;;0.52;0.10;;;;;;;;;;1027863;28;20030;-75
2023/05/28 02:20:04;;;;;;;0.25;0.22;;;;;;;;;;1031565;28;20018;-75
2023/05/28 02:20:35;;;;;;;0.00;0.00;;;;;;;;;;1031562;28;20026;-75
2023/05/28 02:21:06;;;;;;;5.43;0.68;;;;;;;;;;1031864;28;20033;-75
2023/05/28 02:21:36;;;;;;;0.22;0.22;;;;;;;;;;1030094;28;20922;-75
2023/05/28 02:22:11;;;;;;;0.85;0.35;;;;;;;;;;1027976;28;20604;-75
2023/05/28 02:22:41;;;;;;;0.90;0.80;;;;;;;;;;1027798;28;20495;-75
2023/05/28 02:23:12;;;;;;;0.68;0.52;;;;;;;;;;1028092;28;20023;-75
2023/05/28 02:23:43;;;;;;;0.73;0.63;;;;;;;;;;1027587;28;20026;-75
2023/05/28 02:24:14;;;;;;;1.13;0.77;;;;;;;;;;1031685;28;20022;-75
2023/05/28 02:24:46;;;;;;;3.65;0.73;;;;;;;;;;1031571;28;20113;-75
2023/05/28 02:25:17;;;;;;;1.55;0.52;;;;;;;;;;1031150;28;20040;-75
2023/05/28 02:25:47;;;;;;;0.55;0.50;;;;;;;;;;1030711;28;20544;-75
2023/05/28 02:26:18;;;;;;;0.55;0.55;;;;;;;;;;1028030;28;20053;-75
2023/05/28 02:26:48;;;;;;;2.67;0.95;;;;;;;;;;1027523;28;20398;-75
2023/05/28 02:27:19;;;;;;;6.20;0.70;;;;;;;;;;1027955;28;20065;-76
2023/05/28 02:27:50;;;;;;;0.22;0.22;;;;;;;;;;1027824;28;20103;-75
2023/05/28 02:28:20;;;;;;;0.05;0.05;;;;;;;;;;1027918;28;20170;-75
2023/05/28 02:28:51;;;;;;;0.55;0.55;;;;;;;;;;1027732;28;20030;-76
2023/05/28 02:29:21;;;;;;;0.90;0.77;;;;;;;;;;1028021;28;20023;-76
2023/05/28 02:29:52;;;;;;;0.35;0.35;;;;;;;;;;1027772;28;20501;-75
2023/05/28 02:30:22;;;;;;;1.38;1.08;;;;;;;;;;1031486;28;20026;-75
2023/05/28 02:30:52;;;;;;;1.27;0.75;;;;;;;;;;1031530;28;20026;-75
2023/05/28 02:31:23;;;;;;;0.15;0.15;;;;;;;;;;1031569;28;21087;-75
2023/05/28 02:31:53;;;;;;;0.65;0.50;;;;;;;;;;1031307;28;20021;-75
2023/05/28 02:32:24;;;;;;;0.13;0.13;;;;;;;;;;1026880;28;20022;-75
2023/05/28 02:32:55;;;;;;;2.17;1.23;;;;;;;;;;1027857;28;20018;-75
2023/05/28 02:33:25;;;;;;;0.52;0.50;;;;;;;;;;1031290;28;20410;-75
2023/05/28 02:33:55;;;;;;;1.92;0.85;;;;;;;;;;1031681;28;20022;-75
2023/05/28 02:34:28;;;;;;;0.90;0.43;;;;;;;;;;1031432;28;20064;-75
2023/05/28 02:34:59;;;;;;;4.70;2.00;;;;;;;;;;1027369;28;20118;-76
2023/05/28 02:35:30;;;;;;;0.22;0.22;;;;;;;;;;1027250;28;20035;-76
2023/05/28 02:36:00;;;;;;;3.15;1.98;;;;;;;;;;1027625;28;20118;-75
2023/05/28 02:36:32;;;;;;;0.70;0.70;;;;;;;;;;1027388;28;20023;-75
2023/05/28 02:37:03;;;;;;;0.45;0.45;;;;;;;;;;1027790;28;20018;-76
2023/05/28 02:37:33;;;;;;;0.95;0.52;;;;;;;;;;1028385;28;20050;-76
2023/05/28 02:38:04;;;;;;;2.35;1.08;;;;;;;;;;1027993;28;20034;-76
2023/05/28 02:38:35;;;;;;;1.13;1.02;;;;;;;;;;1032215;28;20022;-76
2023/05/28 02:39:06;;;;;;;3.47;0.43;;;;;;;;;;1031687;28;20422;-75
2023/05/28 02:39:37;;;;;;;1.30;0.57;;;;;;;;;;1031335;28;20080;-75
2023/05/28 02:40:09;;;;;;;0.10;0.10;;;;;;;;;;1032538;28;20251;-76
2023/05/28 02:40:40;;;;;;;1.83;0.93;;;;;;;;;;1030629;28;20030;-76
2023/05/28 02:41:10;;;;;;;1.08;0.98;;;;;;;;;;1027522;28;20023;-76
2023/05/28 02:41:41;;;;;;;0.63;0.50;;;;;;;;;;1027182;28;20042;-75
2023/05/28 02:42:11;;;;;;;1.25;0.77;;;;;;;;;;1027648;28;20019;-75
2023/05/28 02:42:42;;;;;;;0.93;0.38;;;;;;;;;;1027514;28;20027;-75
2023/05/28 02:43:12;;;;;;;1.92;1.05;;;;;;;;;;1031716;28;20483;-75
2023/05/28 02:43:43;;;;;;;0.55;0.55;;;;;;;;;;1031244;28;20518;-75
2023/05/28 02:44:14;;;;;;;8.40;1.60;;;;;;;;;;1031651;28;20030;-75
2023/05/28 02:44:45;;;;;;;3.20;1.17;;;;;;;;;;1031298;28;20030;-75
2023/05/28 02:45:15;;;;;;;12.00;0.93;;;;;;;;;;1031316;28;20033;-75
2023/05/28 02:45:46;;;;;;;3.13;0.70;;;;;;;;;;1031277;28;20026;-75
2023/05/28 02:46:16;;;;;;;2.70;0.68;;;;;;;;;;1031664;28;20029;-75
2023/05/28 02:46:46;;;;;;;1.80;0.50;;;;;;;;;;1027284;28;20134;-76
2023/05/28 02:47:17;;;;;;;1.10;1.00;;;;;;;;;;1027594;28;20011;-76
2023/05/28 02:47:47;;;;;;;1.92;1.08;;;;;;;;;;1027551;28;20038;-76
2023/05/28 02:48:18;;;;;;;3.22;1.17;;;;;;;;;;1028059;28;20023;-75
2023/05/28 02:48:48;;;;;;;0.20;0.20;;;;;;;;;;1027753;28;20464;-75
2023/05/28 02:49:19;;;;;;;0.45;0.38;;;;;;;;;;1027951;28;20029;-75
2023/05/28 02:49:50;;;;;;;0.75;0.63;;;;;;;;;;1027789;28;20023;-75
2023/05/28 02:50:20;;;;;;;0.45;0.40;;;;;;;;;;1026826;28;20463;-75
2023/05/28 02:50:51;;;;;;;2.50;1.40;;;;;;;;;;1029519;28;20078;-75
2023/05/28 02:51:21;;;;;;;1.77;0.20;;;;;;;;;;1029789;28;20054;-75
2023/05/28 02:51:52;;;;;;;0.35;0.25;;;;;;;;;;1028002;28;20030;-75
2023/05/28 02:52:22;;;;;;;8.20;1.10;;;;;;;;;;1029349;28;20019;-75
2023/05/28 02:52:53;;;;;;;1.58;1.30;;;;;;;;;;1029562;28;20011;-75
2023/05/28 02:53:23;;;;;;;0.80;0.55;;;;;;;;;;1025029;28;20468;-75
2023/05/28 02:53:54;;;;;;;0.65;0.65;;;;;;;;;;1025168;28;20031;-76
2023/05/28 02:54:24;;;;;;;1.88;1.65;;;;;;;;;;1025508;28;20480;-76
2023/05/28 02:54:55;;;;;;;0.68;0.32;;;;;;;;;;1027511;28;20514;-75
2023/05/28 02:55:25;;;;;;;0.68;0.68;;;;;;;;;;1027032;28;20113;-76
2023/05/28 02:55:56;;;;;;;3.28;2.08;;;;;;;;;;1027274;28;20015;-76
2023/05/28 02:56:26;;;;;;;0.75;0.70;;;;;;;;;;1027362;28;20030;-76
2023/05/28 02:56:57;;;;;;;0.32;0.32;;;;;;;;;;1027367;28;20109;-75
2023/05/28 02:57:28;;;;;;;1.50;1.27;;;;;;;;;;1027720;28;20446;-75
2023/05/28 02:57:58;;;;;;;0.52;0.45;;;;;;;;;;1027944;28;20035;-75
2023/05/28 02:58:30;;;;;;;2.65;0.63;;;;;;;;;;1027404;28;20029;-75
2023/05/28 02:59:00;;;;;;;0.10;0.10;;;;;;;;;;1028009;28;20391;-75
2023/05/28 02:59:31;;;;;;;2.63;0.73;;;;;;;;;;1027719;28;20034;-76
2023/05/28 03:00:01;;;;;;;3.30;1.65;;;;;;;;;;1027567;28;20490;-75
2023/05/28 03:00:33;;;;;;;1.30;1.00;;;;;;;;;;1027798;28;20426;-75
2023/05/28 03:01:03;;;;;;;4.95;0.47;;;;;;;;;;1030561;28;20506;-75
2023/05/28 03:01:35;;;;;;;0.75;0.63;;;;;;;;;;1031166;28;20022;-76
2023/05/28 03:02:05;;;;;;;0.85;0.82;;;;;;;;;;1031467;28;20064;-76
2023/05/28 03:02:36;;;;;;;1.80;1.67;;;;;;;;;;1027377;28;20019;-75
2023/05/28 03:03:06;;;;;;;2.10;0.75;;;;;;;;;;1027492;28;20478;-75
2023/05/28 03:03:37;;;;;;;0.10;0.10;;;;;;;;;;1027136;28;20019;-75
2023/05/28 03:04:07;;;;;;;0.52;0.45;;;;;;;;;;1027724;28;20037;-75
2023/05/28 03:04:38;;;;;;;0.47;0.22;;;;;;;;;;1027596;28;20062;-75
2023/05/28 03:05:08;;;;;;;3.88;1.75;;;;;;;;;;1027239;28;20030;-76
2023/05/28 03:05:40;;;;;;;0.40;0.40;;;;;;;;;;1027271;28;20105;-76
2023/05/28 03:06:10;;;;;;;1.67;1.58;;;;;;;;;;1027544;28;20027;-75